sensor_id;sensor_type;location;lat;lon;timestamp;temperature;humidity
31677;DHT22;18385;51.572;6.578;2024-01-11T00:01:46;-0.90;53.60
31677;DHT22;18385;51.572;6.578;2024-01-11T00:04:12;-0.90;53.70
31677;DHT22;18385;51.572;6.578;2024-01-11T00:06:44;-1.00;53.60
31677;DHT22;18385;51.572;6.578;2024-01-11T00:09:10;-1.00;53.70
31677;DHT22;18385;51.572;6.578;2024-01-11T00:11:36;-1.10;53.70
31677;DHT22;18385;51.572;6.578;2024-01-11T00:14:02;-1.10;53.90
31677;DHT22;18385;51.572;6.578;2024-01-11T00:16:27;-1.10;54.00
31677;DHT22;18385;51.572;6.578;2024-01-11T00:18:53;-1.10;54.00
31677;DHT22;18385;51.572;6.578;2024-01-11T00:21:18;-1.00;54.60
31677;DHT22;18385;51.572;6.578;2024-01-11T00:23:44;-1.00;53.80
31677;DHT22;18385;51.572;6.578;2024-01-11T00:26:12;-1.00;53.80
31677;DHT22;18385;51.572;6.578;2024-01-11T00:28:38;-1.00;53.80
31677;DHT22;18385;51.572;6.578;2024-01-11T00:31:04;-1.10;53.80
31677;DHT22;18385;51.572;6.578;2024-01-11T00:33:30;-1.10;53.80
31677;DHT22;18385;51.572;6.578;2024-01-11T00:35:56;-1.20;53.90
31677;DHT22;18385;51.572;6.578;2024-01-11T00:38:21;-1.30;54.00
31677;DHT22;18385;51.572;6.578;2024-01-11T00:40:47;-1.30;54.10
31677;DHT22;18385;51.572;6.578;2024-01-11T00:43:13;-1.30;54.20
31677;DHT22;18385;51.572;6.578;2024-01-11T00:45:38;-1.30;54.20
31677;DHT22;18385;51.572;6.578;2024-01-11T00:48:04;-1.30;54.20
31677;DHT22;18385;51.572;6.578;2024-01-11T00:50:30;-1.30;54.30
31677;DHT22;18385;51.572;6.578;2024-01-11T00:52:56;-1.30;54.30
31677;DHT22;18385;51.572;6.578;2024-01-11T00:55:22;-1.30;54.30
31677;DHT22;18385;51.572;6.578;2024-01-11T00:57:47;-1.30;54.30
31677;DHT22;18385;51.572;6.578;2024-01-11T01:00:13;-1.30;54.30
31677;DHT22;18385;51.572;6.578;2024-01-11T01:02:42;-1.30;54.20
31677;DHT22;18385;51.572;6.578;2024-01-11T01:05:08;-1.30;54.30
31677;DHT22;18385;51.572;6.578;2024-01-11T01:07:34;-1.30;54.40
31677;DHT22;18385;51.572;6.578;2024-01-11T01:09:59;-1.30;54.50
31677;DHT22;18385;51.572;6.578;2024-01-11T01:12:25;-1.20;54.50
31677;DHT22;18385;51.572;6.578;2024-01-11T01:14:51;-1.20;54.40
31677;DHT22;18385;51.572;6.578;2024-01-11T01:17:17;-1.20;54.30
31677;DHT22;18385;51.572;6.578;2024-01-11T01:19:43;-1.20;54.30
31677;DHT22;18385;51.572;6.578;2024-01-11T01:22:09;-1.20;54.30
31677;DHT22;18385;51.572;6.578;2024-01-11T01:24:35;-1.30;54.40
31677;DHT22;18385;51.572;6.578;2024-01-11T01:27:00;-1.20;54.50
31677;DHT22;18385;51.572;6.578;2024-01-11T01:29:26;-1.20;54.50
31677;DHT22;18385;51.572;6.578;2024-01-11T01:31:52;-1.20;54.60
31677;DHT22;18385;51.572;6.578;2024-01-11T01:34:18;-1.20;54.60
31677;DHT22;18385;51.572;6.578;2024-01-11T01:36:44;-1.10;54.60
31677;DHT22;18385;51.572;6.578;2024-01-11T01:39:09;-1.10;54.60
31677;DHT22;18385;51.572;6.578;2024-01-11T01:41:35;-1.10;54.70
31677;DHT22;18385;51.572;6.578;2024-01-11T01:44:00;-1.10;54.60
31677;DHT22;18385;51.572;6.578;2024-01-11T01:46:27;-1.10;54.70
31677;DHT22;18385;51.572;6.578;2024-01-11T01:48:54;-1.10;54.60
31677;DHT22;18385;51.572;6.578;2024-01-11T01:51:21;-1.10;54.60
31677;DHT22;18385;51.572;6.578;2024-01-11T01:53:49;-1.10;54.60
31677;DHT22;18385;51.572;6.578;2024-01-11T01:56:16;-1.20;54.60
31677;DHT22;18385;51.572;6.578;2024-01-11T01:58:43;-1.20;54.60
31677;DHT22;18385;51.572;6.578;2024-01-11T02:01:08;-1.20;54.60
31677;DHT22;18385;51.572;6.578;2024-01-11T02:03:35;-1.20;54.70
31677;DHT22;18385;51.572;6.578;2024-01-11T02:06:03;-1.30;54.50
31677;DHT22;18385;51.572;6.578;2024-01-11T02:08:30;-1.30;54.50
31677;DHT22;18385;51.572;6.578;2024-01-11T02:11:00;-1.40;54.70
31677;DHT22;18385;51.572;6.578;2024-01-11T02:13:26;-1.40;55.40
31677;DHT22;18385;51.572;6.578;2024-01-11T02:15:52;-1.50;54.80
31677;DHT22;18385;51.572;6.578;2024-01-11T02:18:18;-1.50;55.00
31677;DHT22;18385;51.572;6.578;2024-01-11T02:20:44;-1.50;55.10
31677;DHT22;18385;51.572;6.578;2024-01-11T02:23:15;-1.40;55.10
31677;DHT22;18385;51.572;6.578;2024-01-11T02:25:42;-1.40;55.10
31677;DHT22;18385;51.572;6.578;2024-01-11T02:28:08;-1.30;55.10
31677;DHT22;18385;51.572;6.578;2024-01-11T02:30:34;-1.30;55.00
31677;DHT22;18385;51.572;6.578;2024-01-11T02:33:01;-1.30;55.00
31677;DHT22;18385;51.572;6.578;2024-01-11T02:35:27;-1.30;55.00
31677;DHT22;18385;51.572;6.578;2024-01-11T02:37:53;-1.30;54.90
31677;DHT22;18385;51.572;6.578;2024-01-11T02:40:19;-1.30;55.00
31677;DHT22;18385;51.572;6.578;2024-01-11T02:42:45;-1.30;55.00
31677;DHT22;18385;51.572;6.578;2024-01-11T02:45:12;-1.30;54.90
31677;DHT22;18385;51.572;6.578;2024-01-11T02:47:38;-1.30;54.90
31677;DHT22;18385;51.572;6.578;2024-01-11T02:50:05;-1.30;55.00
31677;DHT22;18385;51.572;6.578;2024-01-11T02:52:30;-1.30;55.20
31677;DHT22;18385;51.572;6.578;2024-01-11T02:54:57;-1.40;55.00
31677;DHT22;18385;51.572;6.578;2024-01-11T02:57:22;-1.40;55.10
31677;DHT22;18385;51.572;6.578;2024-01-11T02:59:49;-1.40;55.10
31677;DHT22;18385;51.572;6.578;2024-01-11T03:02:15;-1.40;55.20
31677;DHT22;18385;51.572;6.578;2024-01-11T03:04:41;-1.40;55.20
31677;DHT22;18385;51.572;6.578;2024-01-11T03:07:06;-1.40;55.20
31677;DHT22;18385;51.572;6.578;2024-01-11T03:09:32;-1.40;55.10
31677;DHT22;18385;51.572;6.578;2024-01-11T03:11:59;-1.40;55.10
31677;DHT22;18385;51.572;6.578;2024-01-11T03:14:25;-1.40;55.10
31677;DHT22;18385;51.572;6.578;2024-01-11T03:16:51;-1.50;55.10
31677;DHT22;18385;51.572;6.578;2024-01-11T03:19:16;-1.50;55.10
31677;DHT22;18385;51.572;6.578;2024-01-11T03:21:45;-1.50;55.10
31677;DHT22;18385;51.572;6.578;2024-01-11T03:24:12;-1.60;55.00
31677;DHT22;18385;51.572;6.578;2024-01-11T03:26:37;-1.60;55.10
31677;DHT22;18385;51.572;6.578;2024-01-11T03:29:03;-1.60;55.20
31677;DHT22;18385;51.572;6.578;2024-01-11T03:31:29;-1.60;55.30
31677;DHT22;18385;51.572;6.578;2024-01-11T03:33:54;-1.50;55.50
31677;DHT22;18385;51.572;6.578;2024-01-11T03:36:23;-1.50;55.50
31677;DHT22;18385;51.572;6.578;2024-01-11T03:38:50;-1.40;55.40
31677;DHT22;18385;51.572;6.578;2024-01-11T03:41:16;-1.40;55.30
31677;DHT22;18385;51.572;6.578;2024-01-11T03:43:41;-1.40;55.30
31677;DHT22;18385;51.572;6.578;2024-01-11T03:46:07;-1.40;55.30
31677;DHT22;18385;51.572;6.578;2024-01-11T03:48:33;-1.40;55.40
31677;DHT22;18385;51.572;6.578;2024-01-11T03:51:01;-1.40;55.50
31677;DHT22;18385;51.572;6.578;2024-01-11T03:53:26;-1.40;55.50
31677;DHT22;18385;51.572;6.578;2024-01-11T03:55:52;-1.40;55.50
31677;DHT22;18385;51.572;6.578;2024-01-11T03:58:18;-1.40;55.50
31677;DHT22;18385;51.572;6.578;2024-01-11T04:00:43;-1.40;55.50
31677;DHT22;18385;51.572;6.578;2024-01-11T04:03:09;-1.40;55.60
31677;DHT22;18385;51.572;6.578;2024-01-11T04:05:34;-1.40;55.50
31677;DHT22;18385;51.572;6.578;2024-01-11T04:08:04;-1.40;55.50
31677;DHT22;18385;51.572;6.578;2024-01-11T04:10:30;-1.50;55.50
31677;DHT22;18385;51.572;6.578;2024-01-11T04:12:55;-1.50;55.50
31677;DHT22;18385;51.572;6.578;2024-01-11T04:15:21;-1.50;55.60
31677;DHT22;18385;51.572;6.578;2024-01-11T04:17:47;-1.50;55.60
31677;DHT22;18385;51.572;6.578;2024-01-11T04:20:13;-1.50;55.70
31677;DHT22;18385;51.572;6.578;2024-01-11T04:22:38;-1.50;55.70
31677;DHT22;18385;51.572;6.578;2024-01-11T04:25:04;-1.50;55.70
31677;DHT22;18385;51.572;6.578;2024-01-11T04:27:30;-1.50;55.80
31677;DHT22;18385;51.572;6.578;2024-01-11T04:29:56;-1.60;55.50
31677;DHT22;18385;51.572;6.578;2024-01-11T04:32:22;-1.60;55.60
31677;DHT22;18385;51.572;6.578;2024-01-11T04:34:47;-1.60;55.60
31677;DHT22;18385;51.572;6.578;2024-01-11T04:37:13;-1.70;55.70
31677;DHT22;18385;51.572;6.578;2024-01-11T04:39:39;-1.70;55.70
31677;DHT22;18385;51.572;6.578;2024-01-11T04:42:05;-1.70;55.80
31677;DHT22;18385;51.572;6.578;2024-01-11T04:44:30;-1.80;55.80
31677;DHT22;18385;51.572;6.578;2024-01-11T04:46:56;-1.80;55.70
31677;DHT22;18385;51.572;6.578;2024-01-11T04:49:22;-1.80;55.80
31677;DHT22;18385;51.572;6.578;2024-01-11T04:51:48;-1.80;55.80
31677;DHT22;18385;51.572;6.578;2024-01-11T04:54:13;-1.80;55.80
31677;DHT22;18385;51.572;6.578;2024-01-11T04:56:39;-1.80;55.90
31677;DHT22;18385;51.572;6.578;2024-01-11T04:59:04;-1.80;55.90
31677;DHT22;18385;51.572;6.578;2024-01-11T05:01:30;-1.80;56.00
31677;DHT22;18385;51.572;6.578;2024-01-11T05:03:55;-1.80;56.00
31677;DHT22;18385;51.572;6.578;2024-01-11T05:06:22;-1.80;56.00
31677;DHT22;18385;51.572;6.578;2024-01-11T05:08:49;-1.70;56.10
31677;DHT22;18385;51.572;6.578;2024-01-11T05:11:19;-1.70;56.10
31677;DHT22;18385;51.572;6.578;2024-01-11T05:13:45;-1.70;56.10
31677;DHT22;18385;51.572;6.578;2024-01-11T05:16:24;-1.70;56.10
31677;DHT22;18385;51.572;6.578;2024-01-11T05:18:51;-1.60;56.10
31677;DHT22;18385;51.572;6.578;2024-01-11T05:21:17;-1.60;56.10
31677;DHT22;18385;51.572;6.578;2024-01-11T05:23:43;-1.60;56.00
31677;DHT22;18385;51.572;6.578;2024-01-11T05:26:09;-1.60;55.90
31677;DHT22;18385;51.572;6.578;2024-01-11T05:28:35;-1.60;55.80
31677;DHT22;18385;51.572;6.578;2024-01-11T05:31:01;-1.60;55.90
31677;DHT22;18385;51.572;6.578;2024-01-11T05:33:26;-1.60;55.90
31677;DHT22;18385;51.572;6.578;2024-01-11T05:35:52;-1.70;55.90
31677;DHT22;18385;51.572;6.578;2024-01-11T05:38:19;-1.70;56.00
31677;DHT22;18385;51.572;6.578;2024-01-11T05:40:45;-1.70;56.10
31677;DHT22;18385;51.572;6.578;2024-01-11T05:43:11;-1.70;56.00
31677;DHT22;18385;51.572;6.578;2024-01-11T05:45:36;-1.80;56.00
31677;DHT22;18385;51.572;6.578;2024-01-11T05:48:02;-1.80;56.00
31677;DHT22;18385;51.572;6.578;2024-01-11T05:50:28;-1.80;56.10
31677;DHT22;18385;51.572;6.578;2024-01-11T05:52:53;-1.70;56.10
31677;DHT22;18385;51.572;6.578;2024-01-11T05:55:20;-1.80;56.00
31677;DHT22;18385;51.572;6.578;2024-01-11T05:57:46;-1.80;56.10
31677;DHT22;18385;51.572;6.578;2024-01-11T06:00:12;-1.80;56.10
31677;DHT22;18385;51.572;6.578;2024-01-11T06:02:37;-1.80;56.10
31677;DHT22;18385;51.572;6.578;2024-01-11T06:05:03;-1.80;56.10
31677;DHT22;18385;51.572;6.578;2024-01-11T06:07:29;-1.90;56.10
31677;DHT22;18385;51.572;6.578;2024-01-11T06:09:54;-1.90;56.20
31677;DHT22;18385;51.572;6.578;2024-01-11T06:12:20;-2.00;56.10
31677;DHT22;18385;51.572;6.578;2024-01-11T06:14:46;-2.00;56.20
31677;DHT22;18385;51.572;6.578;2024-01-11T06:17:12;-2.00;56.30
31677;DHT22;18385;51.572;6.578;2024-01-11T06:19:38;-2.10;56.30
31677;DHT22;18385;51.572;6.578;2024-01-11T06:22:04;-2.10;56.20
31677;DHT22;18385;51.572;6.578;2024-01-11T06:24:31;-2.20;56.20
31677;DHT22;18385;51.572;6.578;2024-01-11T06:26:56;-2.20;56.20
31677;DHT22;18385;51.572;6.578;2024-01-11T06:29:22;-2.20;56.20
31677;DHT22;18385;51.572;6.578;2024-01-11T06:31:48;-2.30;56.20
31677;DHT22;18385;51.572;6.578;2024-01-11T06:34:13;-2.30;56.40
31677;DHT22;18385;51.572;6.578;2024-01-11T06:36:39;-2.40;56.30
31677;DHT22;18385;51.572;6.578;2024-01-11T06:39:04;-2.50;56.30
31677;DHT22;18385;51.572;6.578;2024-01-11T06:41:31;-2.50;56.40
31677;DHT22;18385;51.572;6.578;2024-01-11T06:43:56;-2.60;56.40
31677;DHT22;18385;51.572;6.578;2024-01-11T06:46:23;-2.70;56.60
31677;DHT22;18385;51.572;6.578;2024-01-11T06:48:48;-2.70;56.70
31677;DHT22;18385;51.572;6.578;2024-01-11T06:51:21;-2.60;56.90
31677;DHT22;18385;51.572;6.578;2024-01-11T06:53:47;-2.50;57.00
31677;DHT22;18385;51.572;6.578;2024-01-11T06:56:17;-2.40;57.00
31677;DHT22;18385;51.572;6.578;2024-01-11T06:58:44;-2.40;56.80
31677;DHT22;18385;51.572;6.578;2024-01-11T07:01:10;-2.30;56.70
31677;DHT22;18385;51.572;6.578;2024-01-11T07:03:36;-2.30;56.60
31677;DHT22;18385;51.572;6.578;2024-01-11T07:06:02;-2.30;56.70
31677;DHT22;18385;51.572;6.578;2024-01-11T07:08:29;-2.30;56.70
31677;DHT22;18385;51.572;6.578;2024-01-11T07:10:55;-2.20;57.40
31677;DHT22;18385;51.572;6.578;2024-01-11T07:13:21;-2.20;56.70
31677;DHT22;18385;51.572;6.578;2024-01-11T07:15:46;-2.20;56.70
31677;DHT22;18385;51.572;6.578;2024-01-11T07:18:14;-2.20;56.60
31677;DHT22;18385;51.572;6.578;2024-01-11T07:20:40;-2.20;56.60
31677;DHT22;18385;51.572;6.578;2024-01-11T07:23:06;-2.20;56.60
31677;DHT22;18385;51.572;6.578;2024-01-11T07:25:32;-2.20;56.60
31677;DHT22;18385;51.572;6.578;2024-01-11T07:27:58;-2.30;56.70
31677;DHT22;18385;51.572;6.578;2024-01-11T07:30:24;-2.30;56.60
31677;DHT22;18385;51.572;6.578;2024-01-11T07:32:49;-2.30;56.60
31677;DHT22;18385;51.572;6.578;2024-01-11T07:35:15;-2.30;56.80
31677;DHT22;18385;51.572;6.578;2024-01-11T07:37:41;-2.30;56.90
31677;DHT22;18385;51.572;6.578;2024-01-11T07:40:07;-2.20;57.60
31677;DHT22;18385;51.572;6.578;2024-01-11T07:42:39;-2.10;57.00
31677;DHT22;18385;51.572;6.578;2024-01-11T07:45:09;-2.00;57.00
31677;DHT22;18385;51.572;6.578;2024-01-11T07:47:38;-1.90;56.90
31677;DHT22;18385;51.572;6.578;2024-01-11T07:50:05;-1.90;56.70
31677;DHT22;18385;51.572;6.578;2024-01-11T07:52:32;-1.80;56.70
31677;DHT22;18385;51.572;6.578;2024-01-11T07:54:58;-1.80;56.70
31677;DHT22;18385;51.572;6.578;2024-01-11T07:57:32;-1.80;56.50
31677;DHT22;18385;51.572;6.578;2024-01-11T07:59:58;-1.80;56.50
31677;DHT22;18385;51.572;6.578;2024-01-11T08:02:25;-1.80;56.50
31677;DHT22;18385;51.572;6.578;2024-01-11T08:04:51;-1.80;56.60
31677;DHT22;18385;51.572;6.578;2024-01-11T08:07:17;-1.90;56.60
31677;DHT22;18385;51.572;6.578;2024-01-11T08:09:42;-1.90;56.60
31677;DHT22;18385;51.572;6.578;2024-01-11T08:12:17;-1.90;56.70
31677;DHT22;18385;51.572;6.578;2024-01-11T08:14:42;-1.90;56.70
31677;DHT22;18385;51.572;6.578;2024-01-11T08:17:08;-1.80;56.70
31677;DHT22;18385;51.572;6.578;2024-01-11T08:19:34;-1.80;56.90
31677;DHT22;18385;51.572;6.578;2024-01-11T08:22:00;-1.80;56.70
31677;DHT22;18385;51.572;6.578;2024-01-11T08:24:26;-1.80;56.70
31677;DHT22;18385;51.572;6.578;2024-01-11T08:26:52;-1.70;56.80
31677;DHT22;18385;51.572;6.578;2024-01-11T08:29:18;-1.70;56.80
31677;DHT22;18385;51.572;6.578;2024-01-11T08:31:48;-1.70;56.90
31677;DHT22;18385;51.572;6.578;2024-01-11T08:34:13;-1.60;56.90
31677;DHT22;18385;51.572;6.578;2024-01-11T08:36:39;-1.60;56.90
31677;DHT22;18385;51.572;6.578;2024-01-11T08:39:05;-1.50;57.00
31677;DHT22;18385;51.572;6.578;2024-01-11T08:41:32;-1.40;56.90
31677;DHT22;18385;51.572;6.578;2024-01-11T08:43:58;-1.30;56.80
31677;DHT22;18385;51.572;6.578;2024-01-11T08:46:26;-1.20;56.80
31677;DHT22;18385;51.572;6.578;2024-01-11T08:48:53;-1.20;56.70
31677;DHT22;18385;51.572;6.578;2024-01-11T08:51:19;-1.10;56.80
31677;DHT22;18385;51.572;6.578;2024-01-11T08:53:44;-1.10;56.70
31677;DHT22;18385;51.572;6.578;2024-01-11T08:56:10;-1.00;56.70
31677;DHT22;18385;51.572;6.578;2024-01-11T08:58:36;-0.90;56.80
31677;DHT22;18385;51.572;6.578;2024-01-11T09:01:02;-0.90;56.70
31677;DHT22;18385;51.572;6.578;2024-01-11T09:03:28;-0.80;56.80
31677;DHT22;18385;51.572;6.578;2024-01-11T09:05:54;-0.70;56.90
31677;DHT22;18385;51.572;6.578;2024-01-11T09:08:22;-0.60;56.80
31677;DHT22;18385;51.572;6.578;2024-01-11T09:10:48;-0.50;56.80
31677;DHT22;18385;51.572;6.578;2024-01-11T09:13:14;-0.50;56.70
31677;DHT22;18385;51.572;6.578;2024-01-11T09:15:41;-0.40;56.60
31677;DHT22;18385;51.572;6.578;2024-01-11T09:18:07;-0.40;56.70
31677;DHT22;18385;51.572;6.578;2024-01-11T09:20:33;-0.40;56.60
31677;DHT22;18385;51.572;6.578;2024-01-11T09:22:59;-0.30;57.30
31677;DHT22;18385;51.572;6.578;2024-01-11T09:25:24;-0.40;56.60
31677;DHT22;18385;51.572;6.578;2024-01-11T09:27:50;-0.30;56.70
31677;DHT22;18385;51.572;6.578;2024-01-11T09:30:16;-0.30;56.70
31677;DHT22;18385;51.572;6.578;2024-01-11T09:32:41;-0.20;56.70
31677;DHT22;18385;51.572;6.578;2024-01-11T09:35:07;-0.20;56.70
31677;DHT22;18385;51.572;6.578;2024-01-11T09:37:34;-0.10;56.70
31677;DHT22;18385;51.572;6.578;2024-01-11T09:40:00;-0.10;56.70
31677;DHT22;18385;51.572;6.578;2024-01-11T09:42:29;-0.10;56.70
31677;DHT22;18385;51.572;6.578;2024-01-11T09:44:56;-0.10;56.70
31677;DHT22;18385;51.572;6.578;2024-01-11T09:47:22;0.00;56.70
31677;DHT22;18385;51.572;6.578;2024-01-11T09:49:49;0.00;56.70
31677;DHT22;18385;51.572;6.578;2024-01-11T09:52:20;0.10;56.80
31677;DHT22;18385;51.572;6.578;2024-01-11T09:54:47;0.20;56.80
31677;DHT22;18385;51.572;6.578;2024-01-11T09:57:16;0.20;56.70
31677;DHT22;18385;51.572;6.578;2024-01-11T09:59:45;0.30;56.70
31677;DHT22;18385;51.572;6.578;2024-01-11T10:02:12;0.40;56.80
31677;DHT22;18385;51.572;6.578;2024-01-11T10:04:38;0.40;56.60
31677;DHT22;18385;51.572;6.578;2024-01-11T10:07:05;0.50;56.70
31677;DHT22;18385;51.572;6.578;2024-01-11T10:09:31;0.50;56.70
31677;DHT22;18385;51.572;6.578;2024-01-11T10:11:57;0.60;56.70
31677;DHT22;18385;51.572;6.578;2024-01-11T10:14:24;0.60;56.60
31677;DHT22;18385;51.572;6.578;2024-01-11T10:16:49;0.70;56.60
31677;DHT22;18385;51.572;6.578;2024-01-11T10:19:15;0.80;56.70
31677;DHT22;18385;51.572;6.578;2024-01-11T10:21:41;0.80;56.70
31677;DHT22;18385;51.572;6.578;2024-01-11T10:24:07;0.90;56.70
31677;DHT22;18385;51.572;6.578;2024-01-11T10:26:33;0.90;56.60
31677;DHT22;18385;51.572;6.578;2024-01-11T10:28:59;1.00;56.70
31677;DHT22;18385;51.572;6.578;2024-01-11T10:31:28;1.10;56.70
31677;DHT22;18385;51.572;6.578;2024-01-11T10:33:54;1.20;56.70
31677;DHT22;18385;51.572;6.578;2024-01-11T10:36:20;1.20;56.60
31677;DHT22;18385;51.572;6.578;2024-01-11T10:38:46;1.20;56.60
31677;DHT22;18385;51.572;6.578;2024-01-11T10:41:13;1.30;56.60
31677;DHT22;18385;51.572;6.578;2024-01-11T10:43:43;1.30;56.50
31677;DHT22;18385;51.572;6.578;2024-01-11T10:46:11;1.40;56.50
31677;DHT22;18385;51.572;6.578;2024-01-11T10:48:39;1.40;56.50
31677;DHT22;18385;51.572;6.578;2024-01-11T10:51:12;1.50;56.50
31677;DHT22;18385;51.572;6.578;2024-01-11T10:53:46;1.50;56.50
31677;DHT22;18385;51.572;6.578;2024-01-11T10:56:13;1.60;56.50
31677;DHT22;18385;51.572;6.578;2024-01-11T10:58:40;1.60;56.40
31677;DHT22;18385;51.572;6.578;2024-01-11T11:01:08;1.60;57.10
31677;DHT22;18385;51.572;6.578;2024-01-11T11:03:35;1.60;56.50
31677;DHT22;18385;51.572;6.578;2024-01-11T11:06:01;1.60;56.50
31677;DHT22;18385;51.572;6.578;2024-01-11T11:08:27;1.70;56.60
31677;DHT22;18385;51.572;6.578;2024-01-11T11:10:57;1.80;56.60
31677;DHT22;18385;51.572;6.578;2024-01-11T11:13:23;1.80;56.50
31677;DHT22;18385;51.572;6.578;2024-01-11T11:15:50;1.80;56.40
31677;DHT22;18385;51.572;6.578;2024-01-11T11:18:16;1.90;56.60
31677;DHT22;18385;51.572;6.578;2024-01-11T11:20:42;1.90;56.50
31677;DHT22;18385;51.572;6.578;2024-01-11T11:23:10;2.00;56.50
31677;DHT22;18385;51.572;6.578;2024-01-11T11:25:36;2.10;56.50
31677;DHT22;18385;51.572;6.578;2024-01-11T11:28:03;2.10;56.50
31677;DHT22;18385;51.572;6.578;2024-01-11T11:30:40;2.20;56.50
31677;DHT22;18385;51.572;6.578;2024-01-11T11:33:10;2.20;56.50
31677;DHT22;18385;51.572;6.578;2024-01-11T11:35:36;2.30;56.50
31677;DHT22;18385;51.572;6.578;2024-01-11T11:38:02;2.30;56.40
31677;DHT22;18385;51.572;6.578;2024-01-11T11:40:37;2.40;56.40
31677;DHT22;18385;51.572;6.578;2024-01-11T11:43:09;2.40;56.40
31677;DHT22;18385;51.572;6.578;2024-01-11T11:45:35;2.50;56.40
31677;DHT22;18385;51.572;6.578;2024-01-11T11:48:01;2.60;56.40
31677;DHT22;18385;51.572;6.578;2024-01-11T11:50:30;2.60;56.40
31677;DHT22;18385;51.572;6.578;2024-01-11T11:52:57;2.70;56.30
31677;DHT22;18385;51.572;6.578;2024-01-11T11:55:23;2.70;56.30
31677;DHT22;18385;51.572;6.578;2024-01-11T11:57:53;2.80;56.40
31677;DHT22;18385;51.572;6.578;2024-01-11T12:00:20;2.80;56.30
31677;DHT22;18385;51.572;6.578;2024-01-11T12:02:50;2.80;56.30
31677;DHT22;18385;51.572;6.578;2024-01-11T12:05:17;2.90;56.40
31677;DHT22;18385;51.572;6.578;2024-01-11T12:07:44;3.00;56.30
31677;DHT22;18385;51.572;6.578;2024-01-11T12:10:11;3.10;56.20
31677;DHT22;18385;51.572;6.578;2024-01-11T12:12:37;3.20;56.20
31677;DHT22;18385;51.572;6.578;2024-01-11T12:15:05;3.20;56.20
31677;DHT22;18385;51.572;6.578;2024-01-11T12:17:30;3.20;56.10
31677;DHT22;18385;51.572;6.578;2024-01-11T12:19:56;3.20;56.20
31677;DHT22;18385;51.572;6.578;2024-01-11T12:22:23;3.30;56.20
31677;DHT22;18385;51.572;6.578;2024-01-11T12:24:48;3.30;56.10
31677;DHT22;18385;51.572;6.578;2024-01-11T12:27:14;3.30;56.10
31677;DHT22;18385;51.572;6.578;2024-01-11T12:29:40;3.30;56.00
31677;DHT22;18385;51.572;6.578;2024-01-11T12:32:07;3.40;56.10
31677;DHT22;18385;51.572;6.578;2024-01-11T12:34:36;3.40;56.10
31677;DHT22;18385;51.572;6.578;2024-01-11T12:37:02;3.50;56.10
31677;DHT22;18385;51.572;6.578;2024-01-11T12:39:31;3.60;56.20
31677;DHT22;18385;51.572;6.578;2024-01-11T12:41:56;3.60;56.00
31677;DHT22;18385;51.572;6.578;2024-01-11T12:44:23;3.70;56.00
31677;DHT22;18385;51.572;6.578;2024-01-11T12:46:51;3.70;55.90
31677;DHT22;18385;51.572;6.578;2024-01-11T12:49:17;3.70;55.90
31677;DHT22;18385;51.572;6.578;2024-01-11T12:51:42;3.70;56.00
31677;DHT22;18385;51.572;6.578;2024-01-11T12:54:14;3.80;55.90
31677;DHT22;18385;51.572;6.578;2024-01-11T12:56:43;3.90;56.00
31677;DHT22;18385;51.572;6.578;2024-01-11T12:59:09;3.90;55.90
31677;DHT22;18385;51.572;6.578;2024-01-11T13:01:37;3.90;55.80
31677;DHT22;18385;51.572;6.578;2024-01-11T13:04:03;3.90;55.80
31677;DHT22;18385;51.572;6.578;2024-01-11T13:06:32;4.00;56.40
31677;DHT22;18385;51.572;6.578;2024-01-11T13:09:01;4.00;55.80
31677;DHT22;18385;51.572;6.578;2024-01-11T13:11:28;4.00;55.80
31677;DHT22;18385;51.572;6.578;2024-01-11T13:13:53;4.00;55.80
31677;DHT22;18385;51.572;6.578;2024-01-11T13:16:19;4.00;55.80
31677;DHT22;18385;51.572;6.578;2024-01-11T13:18:46;4.10;55.80
31677;DHT22;18385;51.572;6.578;2024-01-11T13:21:12;4.00;55.70
31677;DHT22;18385;51.572;6.578;2024-01-11T13:23:38;4.10;55.80
31677;DHT22;18385;51.572;6.578;2024-01-11T13:26:05;4.10;55.80
31677;DHT22;18385;51.572;6.578;2024-01-11T13:28:32;4.10;55.70
31677;DHT22;18385;51.572;6.578;2024-01-11T13:30:59;4.10;55.70
31677;DHT22;18385;51.572;6.578;2024-01-11T13:33:25;4.00;55.70
31677;DHT22;18385;51.572;6.578;2024-01-11T13:35:51;4.00;55.80
31677;DHT22;18385;51.572;6.578;2024-01-11T13:38:16;4.00;55.90
31677;DHT22;18385;51.572;6.578;2024-01-11T13:40:42;4.00;55.90
31677;DHT22;18385;51.572;6.578;2024-01-11T13:43:09;4.00;55.80
31677;DHT22;18385;51.572;6.578;2024-01-11T13:45:35;4.10;56.20
31677;DHT22;18385;51.572;6.578;2024-01-11T13:48:03;4.20;56.60
31677;DHT22;18385;51.572;6.578;2024-01-11T13:50:29;4.30;56.80
31677;DHT22;18385;51.572;6.578;2024-01-11T13:52:54;4.40;56.80
31677;DHT22;18385;51.572;6.578;2024-01-11T13:55:20;4.50;57.00
31677;DHT22;18385;51.572;6.578;2024-01-11T13:57:47;4.70;57.20
31677;DHT22;18385;51.572;6.578;2024-01-11T14:00:14;4.90;57.40
31677;DHT22;18385;51.572;6.578;2024-01-11T14:02:40;5.20;57.40
31677;DHT22;18385;51.572;6.578;2024-01-11T14:05:10;5.30;57.20
31677;DHT22;18385;51.572;6.578;2024-01-11T14:07:39;5.40;57.20
31677;DHT22;18385;51.572;6.578;2024-01-11T14:10:06;5.50;56.90
31677;DHT22;18385;51.572;6.578;2024-01-11T14:12:34;5.40;56.80
31677;DHT22;18385;51.572;6.578;2024-01-11T14:15:05;5.30;56.70
31677;DHT22;18385;51.572;6.578;2024-01-11T14:17:34;5.20;56.90
31677;DHT22;18385;51.572;6.578;2024-01-11T14:20:01;5.20;57.10
31677;DHT22;18385;51.572;6.578;2024-01-11T14:22:27;5.40;57.10
31677;DHT22;18385;51.572;6.578;2024-01-11T14:24:52;5.20;56.50
31677;DHT22;18385;51.572;6.578;2024-01-11T14:27:20;4.90;55.90
31677;DHT22;18385;51.572;6.578;2024-01-11T14:29:47;4.50;55.70
31677;DHT22;18385;51.572;6.578;2024-01-11T14:32:12;4.20;55.90
31677;DHT22;18385;51.572;6.578;2024-01-11T14:34:42;4.00;56.40
31677;DHT22;18385;51.572;6.578;2024-01-11T14:37:07;4.10;57.20
31677;DHT22;18385;51.572;6.578;2024-01-11T14:39:33;4.60;58.00
31677;DHT22;18385;51.572;6.578;2024-01-11T14:41:59;5.00;57.90
31677;DHT22;18385;51.572;6.578;2024-01-11T14:44:24;5.00;56.70
31677;DHT22;18385;51.572;6.578;2024-01-11T14:46:50;4.90;56.10
31677;DHT22;18385;51.572;6.578;2024-01-11T14:49:16;4.70;56.60
31677;DHT22;18385;51.572;6.578;2024-01-11T14:51:41;4.40;55.80
31677;DHT22;18385;51.572;6.578;2024-01-11T14:54:07;4.30;56.10
31677;DHT22;18385;51.572;6.578;2024-01-11T14:56:33;4.20;56.30
31677;DHT22;18385;51.572;6.578;2024-01-11T14:59:01;4.10;56.40
31677;DHT22;18385;51.572;6.578;2024-01-11T15:01:27;4.10;56.50
31677;DHT22;18385;51.572;6.578;2024-01-11T15:03:52;4.00;56.50
31677;DHT22;18385;51.572;6.578;2024-01-11T15:06:18;4.00;56.50
31677;DHT22;18385;51.572;6.578;2024-01-11T15:08:45;4.00;56.60
31677;DHT22;18385;51.572;6.578;2024-01-11T15:11:10;4.00;56.70
31677;DHT22;18385;51.572;6.578;2024-01-11T15:13:36;4.10;56.70
31677;DHT22;18385;51.572;6.578;2024-01-11T15:16:01;4.10;56.70
31677;DHT22;18385;51.572;6.578;2024-01-11T15:18:27;4.10;56.60
31677;DHT22;18385;51.572;6.578;2024-01-11T15:20:53;4.00;56.60
31677;DHT22;18385;51.572;6.578;2024-01-11T15:23:19;4.00;56.70
31677;DHT22;18385;51.572;6.578;2024-01-11T15:25:44;4.00;56.80
31677;DHT22;18385;51.572;6.578;2024-01-11T15:28:11;4.00;56.90
31677;DHT22;18385;51.572;6.578;2024-01-11T15:30:36;4.10;56.90
31677;DHT22;18385;51.572;6.578;2024-01-11T15:33:02;4.10;56.90